sensor_id;sensor_type;location;lat;lon;timestamp;P1;P2;P0
75960;PMS7003;64644;48.914;2.254;2024-02-28T00:02:09;9.75;8.00;5.00
75960;PMS7003;64644;48.914;2.254;2024-02-28T00:04:34;6.50;4.50;3.00
75960;PMS7003;64644;48.914;2.254;2024-02-28T00:06:59;13.75;8.00;4.00
75960;PMS7003;64644;48.914;2.254;2024-02-28T00:09:25;8.50;7.50;5.00
75960;PMS7003;64644;48.914;2.254;2024-02-28T00:11:50;10.00;8.00;5.00
75960;PMS7003;64644;48.914;2.254;2024-02-28T00:14:16;6.00;6.00;4.75
75960;PMS7003;64644;48.914;2.254;2024-02-28T00:16:42;8.50;7.00;5.00
75960;PMS7003;64644;48.914;2.254;2024-02-28T00:19:08;7.25;7.25;5.00
75960;PMS7003;64644;48.914;2.254;2024-02-28T00:21:34;4.00;4.00;4.00
75960;PMS7003;64644;48.914;2.254;2024-02-28T00:23:59;8.50;7.25;5.00
75960;PMS7003;64644;48.914;2.254;2024-02-28T00:26:24;9.00;7.75;5.00
75960;PMS7003;64644;48.914;2.254;2024-02-28T00:28:50;9.50;7.25;4.00
75960;PMS7003;64644;48.914;2.254;2024-02-28T00:31:15;5.00;5.00;4.50
75960;PMS7003;64644;48.914;2.254;2024-02-28T00:33:41;5.50;5.50;4.00
75960;PMS7003;64644;48.914;2.254;2024-02-28T00:36:06;7.00;7.00;5.00
75960;PMS7003;64644;48.914;2.254;2024-02-28T00:38:31;9.00;9.00;5.00
75960;PMS7003;64644;48.914;2.254;2024-02-28T00:40:57;9.25;7.00;5.00
75960;PMS7003;64644;48.914;2.254;2024-02-28T00:43:22;11.25;8.50;7.00
75960;PMS7003;64644;48.914;2.254;2024-02-28T00:45:48;9.50;9.50;6.50
75960;PMS7003;64644;48.914;2.254;2024-02-28T00:48:13;14.00;10.25;7.75
75960;PMS7003;64644;48.914;2.254;2024-02-28T00:50:39;11.25;8.75;7.25
75960;PMS7003;64644;48.914;2.254;2024-02-28T00:53:04;10.00;10.00;6.50
75960;PMS7003;64644;48.914;2.254;2024-02-28T00:55:30;13.75;10.75;7.75
75960;PMS7003;64644;48.914;2.254;2024-02-28T00:57:55;11.75;10.00;7.00
75960;PMS7003;64644;48.914;2.254;2024-02-28T01:00:20;8.00;8.00;7.00
75960;PMS7003;64644;48.914;2.254;2024-02-28T01:02:46;12.50;11.00;8.25
75960;PMS7003;64644;48.914;2.254;2024-02-28T01:05:11;8.00;8.00;7.00
75960;PMS7003;64644;48.914;2.254;2024-02-28T01:07:36;12.75;10.50;7.50
75960;PMS7003;64644;48.914;2.254;2024-02-28T01:10:02;9.25;7.25;2.00
75960;PMS7003;64644;48.914;2.254;2024-02-28T01:12:29;9.00;7.00;5.50
75960;PMS7003;64644;48.914;2.254;2024-02-28T01:14:54;15.00;13.25;8.00
75960;PMS7003;64644;48.914;2.254;2024-02-28T01:17:19;3.50;3.50;2.00
75960;PMS7003;64644;48.914;2.254;2024-02-28T01:19:45;11.75;9.00;7.50
75960;PMS7003;64644;48.914;2.254;2024-02-28T01:22:10;13.00;10.25;7.00
75960;PMS7003;64644;48.914;2.254;2024-02-28T01:24:35;10.00;10.00;7.00
75960;PMS7003;64644;48.914;2.254;2024-02-28T01:27:01;16.75;12.00;8.00
75960;PMS7003;64644;48.914;2.254;2024-02-28T01:29:27;14.00;13.00;8.00
75960;PMS7003;64644;48.914;2.254;2024-02-28T01:31:53;11.75;9.00;6.00
75960;PMS7003;64644;48.914;2.254;2024-02-28T01:34:19;7.75;7.75;6.50
75960;PMS7003;64644;48.914;2.254;2024-02-28T01:36:44;13.00;11.00;8.00
75960;PMS7003;64644;48.914;2.254;2024-02-28T01:39:09;10.25;10.25;7.00
75960;PMS7003;64644;48.914;2.254;2024-02-28T01:41:35;10.00;10.00;7.25
75960;PMS7003;64644;48.914;2.254;2024-02-28T01:44:00;10.33;10.33;7.67
75960;PMS7003;64644;48.914;2.254;2024-02-28T01:46:26;10.50;10.50;8.00
75960;PMS7003;64644;48.914;2.254;2024-02-28T01:48:55;14.50;13.25;7.00
75960;PMS7003;64644;48.914;2.254;2024-02-28T01:51:22;17.25;12.50;8.00
75960;PMS7003;64644;48.914;2.254;2024-02-28T01:53:48;18.25;10.50;6.50
75960;PMS7003;64644;48.914;2.254;2024-02-28T01:56:16;13.75;10.50;7.00
75960;PMS7003;64644;48.914;2.254;2024-02-28T01:58:43;11.00;11.00;7.00
75960;PMS7003;64644;48.914;2.254;2024-02-28T02:01:11;10.25;10.25;7.50
75960;PMS7003;64644;48.914;2.254;2024-02-28T02:03:38;11.00;10.50;8.00
75960;PMS7003;64644;48.914;2.254;2024-02-28T02:06:03;11.00;10.00;7.00
75960;PMS7003;64644;48.914;2.254;2024-02-28T02:08:30;11.75;7.75;5.00
75960;PMS7003;64644;48.914;2.254;2024-02-28T02:10:56;13.00;11.75;9.50
75960;PMS7003;64644;48.914;2.254;2024-02-28T02:13:21;12.00;10.50;8.00
75960;PMS7003;64644;48.914;2.254;2024-02-28T02:15:47;15.00;15.00;9.50
75960;PMS7003;64644;48.914;2.254;2024-02-28T02:18:12;12.00;9.00;7.00
75960;PMS7003;64644;48.914;2.254;2024-02-28T02:20:38;10.50;10.50;7.00
75960;PMS7003;64644;48.914;2.254;2024-02-28T02:23:09;16.25;8.75;4.00
75960;PMS7003;64644;48.914;2.254;2024-02-28T02:25:34;12.50;9.25;6.50
75960;PMS7003;64644;48.914;2.254;2024-02-28T02:28:08;12.50;12.50;9.50
75960;PMS7003;64644;48.914;2.254;2024-02-28T02:30:34;15.33;14.00;10.00
75960;PMS7003;64644;48.914;2.254;2024-02-28T02:32:59;13.00;13.00;10.00
75960;PMS7003;64644;48.914;2.254;2024-02-28T02:35:24;14.00;14.00;8.67
75960;PMS7003;64644;48.914;2.254;2024-02-28T02:37:50;15.50;13.50;10.00
75960;PMS7003;64644;48.914;2.254;2024-02-28T02:40:15;16.00;16.00;10.25
75960;PMS7003;64644;48.914;2.254;2024-02-28T02:42:40;15.50;11.25;7.75
75960;PMS7003;64644;48.914;2.254;2024-02-28T02:45:06;12.75;11.50;10.00
75960;PMS7003;64644;48.914;2.254;2024-02-28T02:47:31;20.50;15.50;10.75
75960;PMS7003;64644;48.914;2.254;2024-02-28T02:49:57;12.75;11.00;9.50
75960;PMS7003;64644;48.914;2.254;2024-02-28T02:52:22;20.67;15.67;9.67
75960;PMS7003;64644;48.914;2.254;2024-02-28T02:54:47;16.00;14.00;10.00
75960;PMS7003;64644;48.914;2.254;2024-02-28T02:57:13;16.33;13.67;11.33
75960;PMS7003;64644;48.914;2.254;2024-02-28T02:59:38;16.75;16.75;11.25
75960;PMS7003;64644;48.914;2.254;2024-02-28T03:02:03;15.00;13.50;10.00
75960;PMS7003;64644;48.914;2.254;2024-02-28T03:04:29;16.25;15.75;10.50
75960;PMS7003;64644;48.914;2.254;2024-02-28T03:06:54;10.00;10.00;8.00
75960;PMS7003;64644;48.914;2.254;2024-02-28T03:09:20;17.50;16.25;11.25
75960;PMS7003;64644;48.914;2.254;2024-02-28T03:11:46;14.50;14.25;12.75
75960;PMS7003;64644;48.914;2.254;2024-02-28T03:14:11;16.50;16.00;13.00
75960;PMS7003;64644;48.914;2.254;2024-02-28T03:16:40;16.25;14.50;10.00
75960;PMS7003;64644;48.914;2.254;2024-02-28T03:19:06;13.00;13.00;10.25
75960;PMS7003;64644;48.914;2.254;2024-02-28T03:21:32;13.25;12.75;10.00
75960;PMS7003;64644;48.914;2.254;2024-02-28T03:23:57;16.00;13.50;10.00
75960;PMS7003;64644;48.914;2.254;2024-02-28T03:26:22;21.75;16.00;10.50
75960;PMS7003;64644;48.914;2.254;2024-02-28T03:28:48;10.00;10.00;6.25
75960;PMS7003;64644;48.914;2.254;2024-02-28T03:31:13;13.67;13.33;10.00
75960;PMS7003;64644;48.914;2.254;2024-02-28T03:33:38;16.00;11.50;8.00
75960;PMS7003;64644;48.914;2.254;2024-02-28T03:36:04;21.00;16.75;11.25
75960;PMS7003;64644;48.914;2.254;2024-02-28T03:38:29;16.50;16.00;9.50
75960;PMS7003;64644;48.914;2.254;2024-02-28T03:40:55;16.25;12.25;8.50
75960;PMS7003;64644;48.914;2.254;2024-02-28T03:43:20;12.75;10.00;7.00
75960;PMS7003;64644;48.914;2.254;2024-02-28T03:45:45;13.00;13.00;10.00
75960;PMS7003;64644;48.914;2.254;2024-02-28T03:48:11;13.00;12.25;9.75
75960;PMS7003;64644;48.914;2.254;2024-02-28T03:50:36;14.50;13.25;10.00
75960;PMS7003;64644;48.914;2.254;2024-02-28T03:53:02;16.75;16.25;10.00
75960;PMS7003;64644;48.914;2.254;2024-02-28T03:55:28;16.25;14.00;10.75
75960;PMS7003;64644;48.914;2.254;2024-02-28T03:57:53;15.75;12.50;10.00
75960;PMS7003;64644;48.914;2.254;2024-02-28T04:00:18;17.00;13.75;10.00
75960;PMS7003;64644;48.914;2.254;2024-02-28T04:02:44;13.00;11.50;8.00
75960;PMS7003;64644;48.914;2.254;2024-02-28T04:05:09;14.00;11.33;8.33
75960;PMS7003;64644;48.914;2.254;2024-02-28T04:07:35;14.25;13.00;10.50
75960;PMS7003;64644;48.914;2.254;2024-02-28T04:10:00;11.50;11.50;9.25
75960;PMS7003;64644;48.914;2.254;2024-02-28T04:12:25;18.50;14.50;10.00
75960;PMS7003;64644;48.914;2.254;2024-02-28T04:14:51;14.25;10.25;8.25
75960;PMS7003;64644;48.914;2.254;2024-02-28T04:17:16;17.25;15.50;11.25
75960;PMS7003;64644;48.914;2.254;2024-02-28T04:19:41;16.00;13.75;9.50
75960;PMS7003;64644;48.914;2.254;2024-02-28T04:22:06;12.75;11.75;8.25
75960;PMS7003;64644;48.914;2.254;2024-02-28T04:24:32;14.00;11.25;10.00
75960;PMS7003;64644;48.914;2.254;2024-02-28T04:26:57;11.25;10.00;7.00
75960;PMS7003;64644;48.914;2.254;2024-02-28T04:29:24;11.00;11.00;5.50
75960;PMS7003;64644;48.914;2.254;2024-02-28T04:31:50;13.00;12.00;9.00
75960;PMS7003;64644;48.914;2.254;2024-02-28T04:34:15;17.00;15.25;10.00
75960;PMS7003;64644;48.914;2.254;2024-02-28T04:36:40;9.75;9.75;7.75
75960;PMS7003;64644;48.914;2.254;2024-02-28T04:39:06;16.00;15.00;10.00
75960;PMS7003;64644;48.914;2.254;2024-02-28T04:41:32;13.25;13.25;10.00
75960;PMS7003;64644;48.914;2.254;2024-02-28T04:43:59;10.75;10.00;5.75
75960;PMS7003;64644;48.914;2.254;2024-02-28T04:46:24;18.25;15.75;11.25
75960;PMS7003;64644;48.914;2.254;2024-02-28T04:48:50;14.50;13.00;8.25
75960;PMS7003;64644;48.914;2.254;2024-02-28T04:51:15;24.50;16.00;10.00
75960;PMS7003;64644;48.914;2.254;2024-02-28T04:53:44;17.75;15.50;9.50
75960;PMS7003;64644;48.914;2.254;2024-02-28T04:56:09;23.75;19.00;11.50
75960;PMS7003;64644;48.914;2.254;2024-02-28T04:58:35;10.00;8.75;6.00
75960;PMS7003;64644;48.914;2.254;2024-02-28T05:01:01;17.00;15.50;10.00
75960;PMS7003;64644;48.914;2.254;2024-02-28T05:03:26;16.50;15.00;11.00
75960;PMS7003;64644;48.914;2.254;2024-02-28T05:05:51;16.75;14.25;11.25
75960;PMS7003;64644;48.914;2.254;2024-02-28T05:08:19;21.33;17.33;10.00
75960;PMS7003;64644;48.914;2.254;2024-02-28T05:10:45;19.75;16.00;13.00
75960;PMS7003;64644;48.914;2.254;2024-02-28T05:13:10;14.25;14.25;10.50
75960;PMS7003;64644;48.914;2.254;2024-02-28T05:15:36;14.50;14.50;10.25
75960;PMS7003;64644;48.914;2.254;2024-02-28T05:18:01;14.50;14.00;11.00
75960;PMS7003;64644;48.914;2.254;2024-02-28T05:20:27;11.25;10.75;6.75
75960;PMS7003;64644;48.914;2.254;2024-02-28T05:22:52;20.75;15.75;11.75
75960;PMS7003;64644;48.914;2.254;2024-02-28T05:25:18;19.50;15.75;11.75
75960;PMS7003;64644;48.914;2.254;2024-02-28T05:27:43;13.50;9.75;7.75
75960;PMS7003;64644;48.914;2.254;2024-02-28T05:30:08;14.33;14.33;12.00
75960;PMS7003;64644;48.914;2.254;2024-02-28T05:32:34;20.25;17.25;12.00
75960;PMS7003;64644;48.914;2.254;2024-02-28T05:35:00;17.75;16.25;10.25
75960;PMS7003;64644;48.914;2.254;2024-02-28T05:37:25;16.50;14.25;10.50
75960;PMS7003;64644;48.914;2.254;2024-02-28T05:39:51;16.50;13.75;9.75
75960;PMS7003;64644;48.914;2.254;2024-02-28T05:42:17;16.00;14.67;11.33
75960;PMS7003;64644;48.914;2.254;2024-02-28T05:44:47;20.75;19.75;13.00
75960;PMS7003;64644;48.914;2.254;2024-02-28T05:47:13;17.25;16.00;10.00
75960;PMS7003;64644;48.914;2.254;2024-02-28T05:49:38;16.00;13.50;12.50
75960;PMS7003;64644;48.914;2.254;2024-02-28T05:52:04;16.75;15.25;10.00
75960;PMS7003;64644;48.914;2.254;2024-02-28T05:54:30;13.00;13.00;10.00
75960;PMS7003;64644;48.914;2.254;2024-02-28T05:56:55;15.50;14.25;12.00
75960;PMS7003;64644;48.914;2.254;2024-02-28T05:59:21;14.75;12.50;7.00
75960;PMS7003;64644;48.914;2.254;2024-02-28T06:01:46;12.33;12.33;9.33
75960;PMS7003;64644;48.914;2.254;2024-02-28T06:04:11;15.50;15.50;10.00
75960;PMS7003;64644;48.914;2.254;2024-02-28T06:06:37;11.75;11.50;10.00
75960;PMS7003;64644;48.914;2.254;2024-02-28T06:09:03;13.00;13.00;9.25
75960;PMS7003;64644;48.914;2.254;2024-02-28T06:11:28;14.25;11.25;8.25
75960;PMS7003;64644;48.914;2.254;2024-02-28T06:13:54;21.67;18.67;10.67
75960;PMS7003;64644;48.914;2.254;2024-02-28T06:16:19;12.00;11.00;8.50
75960;PMS7003;64644;48.914;2.254;2024-02-28T06:18:44;19.00;14.00;7.00
75960;PMS7003;64644;48.914;2.254;2024-02-28T06:21:10;19.00;18.25;13.50
75960;PMS7003;64644;48.914;2.254;2024-02-28T06:23:35;16.00;16.00;11.50
75960;PMS7003;64644;48.914;2.254;2024-02-28T06:26:00;13.33;12.00;9.33
75960;PMS7003;64644;48.914;2.254;2024-02-28T06:28:26;19.33;15.67;11.00
75960;PMS7003;64644;48.914;2.254;2024-02-28T06:30:51;12.50;12.50;10.00
75960;PMS7003;64644;48.914;2.254;2024-02-28T06:33:17;15.50;13.75;8.50
75960;PMS7003;64644;48.914;2.254;2024-02-28T06:35:43;12.75;11.00;8.50
75960;PMS7003;64644;48.914;2.254;2024-02-28T06:38:08;17.75;16.75;12.75
75960;PMS7003;64644;48.914;2.254;2024-02-28T06:40:34;20.00;15.00;11.25
75960;PMS7003;64644;48.914;2.254;2024-02-28T06:43:00;17.00;16.00;11.25
75960;PMS7003;64644;48.914;2.254;2024-02-28T06:45:26;24.00;17.50;10.25
75960;PMS7003;64644;48.914;2.254;2024-02-28T06:47:51;19.00;16.00;12.75
75960;PMS7003;64644;48.914;2.254;2024-02-28T06:50:17;17.00;17.00;11.25
75960;PMS7003;64644;48.914;2.254;2024-02-28T06:52:42;18.75;17.25;12.00
75960;PMS7003;64644;48.914;2.254;2024-02-28T06:55:08;22.25;19.25;14.00
75960;PMS7003;64644;48.914;2.254;2024-02-28T06:57:40;16.50;16.25;13.00
75960;PMS7003;64644;48.914;2.254;2024-02-28T07:00:07;21.25;18.75;13.75
75960;PMS7003;64644;48.914;2.254;2024-02-28T07:02:34;15.50;15.50;12.50
75960;PMS7003;64644;48.914;2.254;2024-02-28T07:05:02;15.75;14.25;10.00
75960;PMS7003;64644;48.914;2.254;2024-02-28T07:07:29;16.00;14.00;10.00
75960;PMS7003;64644;48.914;2.254;2024-02-28T07:09:55;25.75;20.25;14.25
75960;PMS7003;64644;48.914;2.254;2024-02-28T07:12:21;22.25;20.00;13.25
75960;PMS7003;64644;48.914;2.254;2024-02-28T07:14:47;16.25;13.75;10.75
75960;PMS7003;64644;48.914;2.254;2024-02-28T07:17:12;18.67;16.33;12.33
75960;PMS7003;64644;48.914;2.254;2024-02-28T07:19:37;18.00;17.00;13.75
75960;PMS7003;64644;48.914;2.254;2024-02-28T07:22:03;20.67;15.33;11.00
75960;PMS7003;64644;48.914;2.254;2024-02-28T07:24:30;18.25;18.25;12.00
75960;PMS7003;64644;48.914;2.254;2024-02-28T07:26:55;16.00;13.25;10.00
75960;PMS7003;64644;48.914;2.254;2024-02-28T07:29:22;16.25;16.00;11.00
75960;PMS7003;64644;48.914;2.254;2024-02-28T07:31:47;12.75;12.50;11.00
75960;PMS7003;64644;48.914;2.254;2024-02-28T07:34:14;13.50;12.00;9.00
75960;PMS7003;64644;48.914;2.254;2024-02-28T07:36:40;18.50;16.75;13.00
75960;PMS7003;64644;48.914;2.254;2024-02-28T07:39:05;21.33;20.00;14.00
75960;PMS7003;64644;48.914;2.254;2024-02-28T07:41:30;23.25;19.75;14.00
75960;PMS7003;64644;48.914;2.254;2024-02-28T07:43:57;22.75;20.50;15.25
75960;PMS7003;64644;48.914;2.254;2024-02-28T07:46:22;23.50;18.75;15.75
75960;PMS7003;64644;48.914;2.254;2024-02-28T07:48:47;26.00;25.00;17.00
75960;PMS7003;64644;48.914;2.254;2024-02-28T07:51:13;23.67;21.33;15.33
75960;PMS7003;64644;48.914;2.254;2024-02-28T07:53:38;22.75;19.25;14.50
75960;PMS7003;64644;48.914;2.254;2024-02-28T07:56:03;27.33;24.67;19.00
75960;PMS7003;64644;48.914;2.254;2024-02-28T07:58:29;28.50;24.25;16.50
75960;PMS7003;64644;48.914;2.254;2024-02-28T08:00:54;25.50;20.75;13.50
75960;PMS7003;64644;48.914;2.254;2024-02-28T08:03:20;26.00;26.00;17.50
75960;PMS7003;64644;48.914;2.254;2024-02-28T08:05:45;29.25;26.00;17.75
75960;PMS7003;64644;48.914;2.254;2024-02-28T08:08:12;18.25;16.25;11.00
75960;PMS7003;64644;48.914;2.254;2024-02-28T08:10:37;25.50;23.25;17.00
75960;PMS7003;64644;48.914;2.254;2024-02-28T08:13:03;29.00;26.75;19.50
75960;PMS7003;64644;48.914;2.254;2024-02-28T08:15:32;26.75;25.50;16.50
75960;PMS7003;64644;48.914;2.254;2024-02-28T08:17:58;21.25;18.75;14.00
75960;PMS7003;64644;48.914;2.254;2024-02-28T08:20:23;17.75;17.75;15.25
75960;PMS7003;64644;48.914;2.254;2024-02-28T08:22:49;24.00;24.00;16.75
75960;PMS7003;64644;48.914;2.254;2024-02-28T08:25:15;18.25;17.50;14.00
75960;PMS7003;64644;48.914;2.254;2024-02-28T08:27:41;17.75;16.00;11.75
75960;PMS7003;64644;48.914;2.254;2024-02-28T08:30:06;16.00;15.25;10.00
75960;PMS7003;64644;48.914;2.254;2024-02-28T08:32:32;23.25;18.50;14.25
75960;PMS7003;64644;48.914;2.254;2024-02-28T08:34:58;21.25;21.25;13.50
75960;PMS7003;64644;48.914;2.254;2024-02-28T08:37:23;24.75;21.75;16.50
75960;PMS7003;64644;48.914;2.254;2024-02-28T08:39:49;21.50;18.25;13.50
75960;PMS7003;64644;48.914;2.254;2024-02-28T08:42:15;18.75;17.00;14.00
75960;PMS7003;64644;48.914;2.254;2024-02-28T08:44:40;22.33;17.67;13.33
75960;PMS7003;64644;48.914;2.254;2024-02-28T08:47:05;25.50;23.00;15.00
75960;PMS7003;64644;48.914;2.254;2024-02-28T08:49:34;18.25;18.00;11.25
75960;PMS7003;64644;48.914;2.254;2024-02-28T08:52:00;14.75;12.25;7.50
75960;PMS7003;64644;48.914;2.254;2024-02-28T08:54:25;20.00;20.00;12.00
75960;PMS7003;64644;48.914;2.254;2024-02-28T08:56:51;21.00;18.00;14.75
75960;PMS7003;64644;48.914;2.254;2024-02-28T08:59:16;25.67;24.00;15.00
75960;PMS7003;64644;48.914;2.254;2024-02-28T09:01:41;22.67;20.33;13.33
75960;PMS7003;64644;48.914;2.254;2024-02-28T09:04:07;26.00;25.25;15.75
75960;PMS7003;64644;48.914;2.254;2024-02-28T09:06:32;22.00;20.33;14.00
75960;PMS7003;64644;48.914;2.254;2024-02-28T09:08:57;25.00;22.25;18.00
75960;PMS7003;64644;48.914;2.254;2024-02-28T09:11:23;23.50;21.25;15.75
75960;PMS7003;64644;48.914;2.254;2024-02-28T09:13:49;22.25;21.50;14.50
75960;PMS7003;64644;48.914;2.254;2024-02-28T09:16:15;14.25;13.75;9.50
75960;PMS7003;64644;48.914;2.254;2024-02-28T09:18:40;17.50;14.75;12.00
75960;PMS7003;64644;48.914;2.254;2024-02-28T09:21:07;15.00;15.00;9.00
75960;PMS7003;64644;48.914;2.254;2024-02-28T09:23:33;15.50;13.00;10.50
75960;PMS7003;64644;48.914;2.254;2024-02-28T09:25:59;16.25;16.25;11.00
75960;PMS7003;64644;48.914;2.254;2024-02-28T09:28:28;18.00;14.75;10.50
75960;PMS7003;64644;48.914;2.254;2024-02-28T09:30:53;19.00;16.25;11.00
75960;PMS7003;64644;48.914;2.254;2024-02-28T09:33:19;18.00;18.00;12.00
75960;PMS7003;64644;48.914;2.254;2024-02-28T09:35:44;17.00;17.00;11.50
75960;PMS7003;64644;48.914;2.254;2024-02-28T09:38:10;16.50;16.50;12.50
75960;PMS7003;64644;48.914;2.254;2024-02-28T09:40:36;17.50;15.00;11.00
75960;PMS7003;64644;48.914;2.254;2024-02-28T09:43:02;21.00;18.00;12.00
75960;PMS7003;64644;48.914;2.254;2024-02-28T09:45:29;21.75;16.00;12.00
75960;PMS7003;64644;48.914;2.254;2024-02-28T09:47:58;15.75;13.00;8.50
75960;PMS7003;64644;48.914;2.254;2024-02-28T09:50:25;16.00;15.50;12.50
75960;PMS7003;64644;48.914;2.254;2024-02-28T09:52:52;18.25;16.75;11.75
75960;PMS7003;64644;48.914;2.254;2024-02-28T09:55:18;15.25;10.25;8.00
75960;PMS7003;64644;48.914;2.254;2024-02-28T09:57:45;11.75;9.00;6.00
75960;PMS7003;64644;48.914;2.254;2024-02-28T10:00:13;13.25;12.50;6.50
75960;PMS7003;64644;48.914;2.254;2024-02-28T10:02:39;9.75;8.00;6.00
75960;PMS7003;64644;48.914;2.254;2024-02-28T10:05:08;8.50;8.50;6.00
75960;PMS7003;64644;48.914;2.254;2024-02-28T10:07:33;6.00;6.00;5.00
75960;PMS7003;64644;48.914;2.254;2024-02-28T10:09:59;9.00;6.00;4.00
75960;PMS7003;64644;48.914;2.254;2024-02-28T10:12:24;12.00;9.25;8.00
75960;PMS7003;64644;48.914;2.254;2024-02-28T10:14:50;13.50;10.50;8.00
75960;PMS7003;64644;48.914;2.254;2024-02-28T10:17:16;14.75;14.00;9.00
75960;PMS7003;64644;48.914;2.254;2024-02-28T10:19:41;13.00;13.00;8.50
75960;PMS7003;64644;48.914;2.254;2024-02-28T10:22:06;16.25;9.25;6.00
75960;PMS7003;64644;48.914;2.254;2024-02-28T10:24:33;13.00;10.25;7.75
75960;PMS7003;64644;48.914;2.254;2024-02-28T10:27:00;11.50;8.50;6.00
75960;PMS7003;64644;48.914;2.254;2024-02-28T10:29:26;9.00;8.50;6.00
75960;PMS7003;64644;48.914;2.254;2024-02-28T10:31:56;10.75;9.50;8.00
75960;PMS7003;64644;48.914;2.254;2024-02-28T10:34:21;11.25;9.00;6.00
75960;PMS7003;64644;48.914;2.254;2024-02-28T10:36:47;9.00;9.00;6.00
75960;PMS7003;64644;48.914;2.254;2024-02-28T10:39:14;9.75;6.50;5.00
75960;PMS7003;64644;48.914;2.254;2024-02-28T10:41:39;10.25;9.25;6.00
75960;PMS7003;64644;48.914;2.254;2024-02-28T10:44:05;11.25;9.50;6.50
75960;PMS7003;64644;48.914;2.254;2024-02-28T10:46:31;9.25;8.50;5.25
75960;PMS7003;64644;48.914;2.254;2024-02-28T10:48:57;8.00;5.50;5.00
75960;PMS7003;64644;48.914;2.254;2024-02-28T10:51:23;5.50;5.50;4.25
75960;PMS7003;64644;48.914;2.254;2024-02-28T10:56:34;8.00;4.00;3.25
75960;PMS7003;64644;48.914;2.254;2024-02-28T10:59:00;2.00;2.00;2.00
75960;PMS7003;64644;48.914;2.254;2024-02-28T11:01:26;6.75;5.50;4.75
75960;PMS7003;64644;48.914;2.254;2024-02-28T11:03:52;6.00;6.00;4.00
75960;PMS7003;64644;48.914;2.254;2024-02-28T11:06:19;8.75;7.25;5.75
75960;PMS7003;64644;48.914;2.254;2024-02-28T11:08:49;6.00;6.00;5.00
75960;PMS7003;64644;48.914;2.254;2024-02-28T11:11:18;6.00;6.00;5.00
75960;PMS7003;64644;48.914;2.254;2024-02-28T11:13:51;8.75;7.25;5.00
75960;PMS7003;64644;48.914;2.254;2024-02-28T11:18:53;5.75;5.00;4.50
75960;PMS7003;64644;48.914;2.254;2024-02-28T11:21:18;8.00;6.00;4.00
75960;PMS7003;64644;48.914;2.254;2024-02-28T11:23:47;4.75;4.75;2.75
75960;PMS7003;64644;48.914;2.254;2024-02-28T11:26:15;9.25;5.00;4.00
75960;PMS7003;64644;48.914;2.254;2024-02-28T11:28:41;12.50;9.00;5.00
75960;PMS7003;64644;48.914;2.254;2024-02-28T11:31:06;8.75;8.00;6.00
75960;PMS7003;64644;48.914;2.254;2024-02-28T11:33:31;9.25;7.00;5.75
75960;PMS7003;64644;48.914;2.254;2024-02-28T11:35:59;6.00;6.00;3.75
75960;PMS7003;64644;48.914;2.254;2024-02-28T11:38:28;8.00;6.25;5.50
75960;PMS7003;64644;48.914;2.254;2024-02-28T11:40:54;6.00;5.25;4.00
75960;PMS7003;64644;48.914;2.254;2024-02-28T11:43:22;6.25;6.25;5.00
75960;PMS7003;64644;48.914;2.254;2024-02-28T11:45:48;10.00;9.00;6.25
75960;PMS7003;64644;48.914;2.254;2024-02-28T11:48:13;9.00;6.75;6.00
75960;PMS7003;64644;48.914;2.254;2024-02-28T11:50:39;10.00;10.00;6.00
75960;PMS7003;64644;48.914;2.254;2024-02-28T11:53:05;9.25;5.00;5.00
75960;PMS7003;64644;48.914;2.254;2024-02-28T11:55:31;7.75;6.75;5.50
75960;PMS7003;64644;48.914;2.254;2024-02-28T11:57:57;9.25;8.00;5.00
75960;PMS7003;64644;48.914;2.254;2024-02-28T12:00:22;10.00;7.00;5.00
75960;PMS7003;64644;48.914;2.254;2024-02-28T12:02:48;8.75;6.25;5.00
75960;PMS7003;64644;48.914;2.254;2024-02-28T12:05:13;8.75;8.00;5.25
75960;PMS7003;64644;48.914;2.254;2024-02-28T12:07:38;8.00;8.00;5.50
75960;PMS7003;64644;48.914;2.254;2024-02-28T12:10:04;11.25;9.25;5.00
75960;PMS7003;64644;48.914;2.254;2024-02-28T12:12:31;7.00;6.50;4.50
75960;PMS7003;64644;48.914;2.254;2024-02-28T12:14:58;9.25;6.00;5.00
75960;PMS7003;64644;48.914;2.254;2024-02-28T12:17:25;6.50;6.50;5.00
75960;PMS7003;64644;48.914;2.254;2024-02-28T12:19:50;5.25;5.25;4.50
75960;PMS7003;64644;48.914;2.254;2024-02-28T12:22:16;9.25;9.25;5.00
75960;PMS7003;64644;48.914;2.254;2024-02-28T12:24:41;6.25;5.75;3.25
75960;PMS7003;64644;48.914;2.254;2024-02-28T12:27:07;4.75;4.75;3.25
75960;PMS7003;64644;48.914;2.254;2024-02-28T12:29:32;6.00;6.00;4.00
75960;PMS7003;64644;48.914;2.254;2024-02-28T12:31:58;10.50;9.00;6.25
75960;PMS7003;64644;48.914;2.254;2024-02-28T12:34:23;6.75;5.25;3.25
75960;PMS7003;64644;48.914;2.254;2024-02-28T12:36:48;10.33;9.33;6.00
75960;PMS7003;64644;48.914;2.254;2024-02-28T12:39:14;9.00;9.00;6.25
75960;PMS7003;64644;48.914;2.254;2024-02-28T12:41:39;9.33;7.67;5.00
75960;PMS7003;64644;48.914;2.254;2024-02-28T12:44:05;10.50;8.00;5.50
75960;PMS7003;64644;48.914;2.254;2024-02-28T12:46:31;8.00;8.00;5.00
75960;PMS7003;64644;48.914;2.254;2024-02-28T12:48:56;7.00;7.00;6.00
75960;PMS7003;64644;48.914;2.254;2024-02-28T12:51:38;7.00;6.00;3.50
75960;PMS7003;64644;48.914;2.254;2024-02-28T12:54:05;12.75;6.00;5.00
75960;PMS7003;64644;48.914;2.254;2024-02-28T12:56:32;7.00;5.00;3.00
75960;PMS7003;64644;48.914;2.254;2024-02-28T12:58:57;7.00;6.25;5.00
75960;PMS7003;64644;48.914;2.254;2024-02-28T13:01:24;4.00;3.50;2.25
75960;PMS7003;64644;48.914;2.254;2024-02-28T13:03:49;4.50;4.50;2.00
75960;PMS7003;64644;48.914;2.254;2024-02-28T13:06:15;2.25;2.25;2.00
75960;PMS7003;64644;48.914;2.254;2024-02-28T13:08:40;4.00;4.00;2.75
75960;PMS7003;64644;48.914;2.254;2024-02-28T13:11:05;8.25;5.50;2.50
75960;PMS7003;64644;48.914;2.254;2024-02-28T13:13:32;4.00;3.00;1.00
75960;PMS7003;64644;48.914;2.254;2024-02-28T13:15:58;2.75;2.75;2.50
75960;PMS7003;64644;48.914;2.254;2024-02-28T13:18:23;2.75;2.25;1.00
75960;PMS7003;64644;48.914;2.254;2024-02-28T13:20:50;2.75;2.75;1.25
75960;PMS7003;64644;48.914;2.254;2024-02-28T13:23:16;1.50;1.50;1.25
75960;PMS7003;64644;48.914;2.254;2024-02-28T13:25:41;2.25;1.00;1.00
75960;PMS7003;64644;48.914;2.254;2024-02-28T13:28:06;2.00;1.00;1.00
75960;PMS7003;64644;48.914;2.254;2024-02-28T13:30:32;3.00;2.00;1.00
75960;PMS7003;64644;48.914;2.254;2024-02-28T13:33:00;2.00;2.00;1.00
75960;PMS7003;64644;48.914;2.254;2024-02-28T13:35:25;4.50;1.25;1.00
75960;PMS7003;64644;48.914;2.254;2024-02-28T13:37:50;1.00;1.00;1.00
75960;PMS7003;64644;48.914;2.254;2024-02-28T13:40:18;1.00;1.00;1.00
75960;PMS7003;64644;48.914;2.254;2024-02-28T13:42:43;1.00;1.00;0.00
75960;PMS7003;64644;48.914;2.254;2024-02-28T13:45:10;1.75;1.75;1.75
75960;PMS7003;64644;48.914;2.254;2024-02-28T13:47:36;2.50;2.50;1.00
75960;PMS7003;64644;48.914;2.254;2024-02-28T13:50:02;1.25;1.25;1.00
75960;PMS7003;64644;48.914;2.254;2024-02-28T13:52:28;6.50;2.00;1.00
75960;PMS7003;64644;48.914;2.254;2024-02-28T13:54:53;5.00;3.00;1.00
75960;PMS7003;64644;48.914;2.254;2024-02-28T13:57:19;1.75;1.00;0.50
75960;PMS7003;64644;48.914;2.254;2024-02-28T13:59:44;2.75;2.75;2.50